Time;durP1;ratioP1;P1;durP2;ratioP2;P2;SDS_P1;SDS_P2;PMS_P1;PMS_P2;Temp;Humidity;BMP_temperature;BMP_pressure;BME280_temperature;BME280_humidity;BME280_pressure;Samples;Min_cycle;Max_cycle;Signal;HPM_P1;HPM_P2
2022/09/12 00:02:02;;;;;;;;;;;;;;;17.76;61.59;99372.44;4478680;32;33525;-64
2022/09/12 00:04:30;;;;;;;;;;;;;;;18.57;59.29;99369.59;4481118;32;34938;-64
2022/09/12 00:06:57;;;;;;;;;;;;;;;18.02;60.99;99364.16;4470485;32;34482;-64
2022/09/12 00:09:24;;;;;;;;;;;;;;;18.26;59.97;99366.78;4480293;32;35499;-64
2022/09/12 00:11:52;;;;;;;;;;;;;;;18.42;59.49;99365.91;4478777;32;32522;-64
2022/09/12 00:14:19;;;;;;;;;;;;;;;18.78;58.02;99369.03;4480506;32;33449;-66
2022/09/12 00:16:46;;;;;;;;;;;;;;;17.85;60.92;99366.88;4481519;32;35484;-64
2022/09/12 00:19:14;;;;;;;;;;;;;;;18.04;60.59;99356.69;4466626;32;32598;-64
2022/09/12 00:21:41;;;;;;;;;;;;;;;17.49;62.39;99370.91;4471203;32;33644;-65
2022/09/12 00:24:09;;;;;;;;;;;;;;;17.67;62.10;99367.03;4464813;32;31597;-65
2022/09/12 00:26:36;;;;;;;;;;;;;;;17.65;61.78;99369.03;4464484;32;33052;-64
2022/09/12 00:29:04;;;;;;;;;;;;;;;17.63;61.91;99383.78;4472106;32;36719;-65
2022/09/12 00:31:31;;;;;;;;;;;;;;;17.86;61.08;99378.56;4463997;32;32305;-64
2022/09/12 00:34:01;;;;;;;;;;;;;;;18.23;60.10;99379.84;4475217;32;32631;-64
2022/09/12 00:36:29;;;;;;;;;;;;;;;17.95;61.19;99379.41;4469382;32;34003;-65
2022/09/12 00:38:56;;;;;;;;;;;;;;;18.67;58.53;99373.97;4473709;32;34308;-64
2022/09/12 00:41:25;;;;;;;;;;;;;;;17.75;61.58;99378.84;4465436;32;32176;-64
2022/09/12 00:43:53;;;;;;;;;;;;;;;17.61;62.36;99369.56;4463950;32;33598;-65
2022/09/12 00:46:20;;;;;;;;;;;;;;;18.05;60.68;99380.91;4471247;32;34227;-64
2022/09/12 00:48:49;;;;;;;;;;;;;;;18.08;60.35;99393.25;4474727;32;34427;-63
2022/09/12 00:51:16;;;;;;;;;;;;;;;17.73;61.98;99383.63;4464615;32;33991;-64
2022/09/12 00:53:44;;;;;;;;;;;;;;;18.54;59.54;99385.34;4470487;32;32965;-64
2022/09/12 00:56:11;;;;;;;;;;;;;;;18.74;58.82;99381.22;4470776;32;34307;-64
2022/09/12 00:58:39;;;;;;;;;;;;;;;18.32;59.84;99379.66;4465155;32;34917;-64
2022/09/12 01:01:07;;;;;;;;;;;;;;;18.19;60.34;99364.97;4471289;32;33124;-64
2022/09/12 01:03:34;;;;;;;;;;;;;;;18.18;60.98;99379.53;4473514;32;33595;-64
2022/09/12 01:06:06;;;;;;;;;;;;;;;18.12;61.61;99383.78;4474346;32;35132;-64
2022/09/12 01:08:34;;;;;;;;;;;;;;;18.31;60.95;99383.37;4466166;32;33831;-64
2022/09/12 01:11:02;;;;;;;;;;;;;;;18.66;59.81;99383.97;4466060;32;33516;-63
2022/09/12 01:13:29;;;;;;;;;;;;;;;18.66;59.73;99383.13;4467243;32;33157;-63
2022/09/12 01:15:56;;;;;;;;;;;;;;;18.25;60.81;99384.09;4477248;32;34474;-64
2022/09/12 01:18:43;;;;;;;;;;;;;;;18.67;59.98;99376.66;4474830;32;32864;-63
2022/09/12 01:21:19;;;;;;;;;;;;;;;18.65;60.07;99374.16;4474979;32;33686;-64
2022/09/12 01:23:56;;;;;;;;;;;;;;;18.50;60.42;99367.75;4471998;32;34014;-64
2022/09/12 01:26:48;;;;;;;;;;;;;;;18.48;60.68;99380.62;4466801;32;34384;-64
2022/09/12 01:29:30;;;;;;;;;;;;;;;18.52;60.19;99380.12;4464320;31;34256;-63
2022/09/12 01:31:58;;;;;;;;;;;;;;;18.54;60.15;99378.06;4466712;32;33660;-64
2022/09/12 01:34:27;;;;;;;;;;;;;;;18.24;61.44;99390.53;4474297;32;34670;-63
2022/09/12 01:37:03;;;;;;;;;;;;;;;18.07;61.71;99383.44;4472781;32;34304;-63
2022/09/12 01:39:43;;;;;;;;;;;;;;;18.07;61.86;99384.31;4465879;32;32646;-63
2022/09/12 01:42:26;;;;;;;;;;;;;;;17.97;62.19;99385.47;4471251;32;33664;-64
2022/09/12 01:45:06;;;;;;;;;;;;;;;18.08;62.11;99382.44;4462356;32;32551;-64
2022/09/12 01:47:40;;;;;;;;;;;;;;;17.92;62.26;99378.72;4472400;32;34459;-63
2022/09/12 01:50:17;;;;;;;;;;;;;;;18.49;60.41;99379.59;4471821;32;34288;-63
2022/09/12 01:52:49;;;;;;;;;;;;;;;18.47;60.69;99376.25;4469715;32;34117;-63
2022/09/12 01:55:17;;;;;;;;;;;;;;;18.00;62.01;99379.72;4464873;32;33441;-64
2022/09/12 01:57:47;;;;;;;;;;;;;;;18.25;61.41;99383.25;4463665;32;35216;-63
2022/09/12 02:00:14;;;;;;;;;;;;;;;18.10;61.77;99383.09;4470013;32;34530;-63
2022/09/12 02:02:47;;;;;;;;;;;;;;;18.14;61.98;99385.31;4466709;32;34620;-63
2022/09/12 02:05:28;;;;;;;;;;;;;;;18.00;62.25;99388.69;4477728;32;34499;-63
2022/09/12 02:07:57;;;;;;;;;;;;;;;17.91;62.46;99393.28;4477005;32;34113;-63
2022/09/12 02:10:25;;;;;;;;;;;;;;;18.19;61.42;99392.06;4471683;32;34563;-63
2022/09/12 02:13:21;;;;;;;;;;;;;;;17.85;62.78;99390.41;4476062;32;32412;-63
2022/09/12 02:15:50;;;;;;;;;;;;;;;16.89;65.97;99399.87;4445752;32;33746;-63
2022/09/12 02:18:18;;;;;;;;;;;;;;;17.77;63.31;99393.94;4482117;32;34497;-64
2022/09/12 02:20:46;;;;;;;;;;;;;;;17.76;63.30;99397.66;4484349;32;34412;-64
2022/09/12 02:23:19;;;;;;;;;;;;;;;18.53;60.79;99387.22;4471637;31;34619;-63
2022/09/12 02:25:47;;;;;;;;;;;;;;;18.95;59.24;99391.50;4469530;32;35275;-63
2022/09/12 02:28:20;;;;;;;;;;;;;;;18.62;59.88;99388.06;4472691;32;34103;-64
2022/09/12 02:30:54;;;;;;;;;;;;;;;18.09;61.45;99381.41;4473265;31;34104;-64
2022/09/12 02:33:21;;;;;;;;;;;;;;;17.82;62.88;99393.47;4474104;32;34118;-63
2022/09/12 02:35:50;;;;;;;;;;;;;;;18.25;61.42;99392.22;4481402;32;34312;-63
2022/09/12 02:38:26;;;;;;;;;;;;;;;18.11;61.67;99387.50;4470889;32;34019;-63
2022/09/12 02:40:53;;;;;;;;;;;;;;;18.05;61.47;99386.31;4467629;31;33190;-63
2022/09/12 02:43:21;;;;;;;;;;;;;;;18.38;60.38;99392.50;4479981;32;32069;-64
2022/09/12 02:45:48;;;;;;;;;;;;;;;18.56;59.76;99389.59;4481919;32;33827;-63
2022/09/12 02:48:18;;;;;;;;;;;;;;;18.62;59.27;99390.75;4472832;32;35523;-64
2022/09/12 02:50:45;;;;;;;;;;;;;;;18.34;60.27;99398.47;4465543;31;35455;-64
2022/09/12 02:53:13;;;;;;;;;;;;;;;18.85;58.56;99397.13;4472666;32;33032;-64
2022/09/12 02:55:40;;;;;;;;;;;;;;;19.01;57.85;99401.63;4470637;32;34461;-64
2022/09/12 02:58:09;;;;;;;;;;;;;;;19.01;57.90;99393.50;4465244;32;33984;-64
2022/09/12 03:00:43;;;;;;;;;;;;;;;19.12;57.64;99400.38;4464980;32;34110;-64
2022/09/12 03:03:13;;;;;;;;;;;;;;;19.03;57.86;99405.00;4476923;32;34610;-62
2022/09/12 03:05:43;;;;;;;;;;;;;;;18.77;58.56;99402.56;4476809;32;32875;-62
2022/09/12 03:08:11;;;;;;;;;;;;;;;18.84;57.75;99403.59;4482306;32;35446;-62
2022/09/12 03:10:38;;;;;;;;;;;;;;;19.08;57.26;99408.03;4482478;32;33100;-64
2022/09/12 03:13:24;;;;;;;;;;;;;;;19.08;56.99;99409.91;4482046;32;32243;-64
2022/09/12 03:16:14;;;;;;;;;;;;;;;19.00;57.01;99393.66;4482441;32;34103;-63
2022/09/12 03:18:49;;;;;;;;;;;;;;;18.94;57.02;99391.66;4478580;31;35049;-63
2022/09/12 03:21:19;;;;;;;;;;;;;;;18.18;59.65;99396.63;4478457;32;34226;-63
2022/09/12 03:24:07;;;;;;;;;;;;;;;18.52;58.36;99390.09;4470712;32;33270;-63
2022/09/12 03:26:37;;;;;;;;;;;;;;;18.51;58.34;99380.28;4461221;31;35355;-63
2022/09/12 03:29:05;;;;;;;;;;;;;;;18.61;58.00;99378.22;4467703;32;36123;-63
2022/09/12 03:31:32;;;;;;;;;;;;;;;18.23;59.18;99383.41;4474880;32;35120;-63
2022/09/12 03:34:00;;;;;;;;;;;;;;;17.40;61.87;99389.84;4481940;32;33290;-63
2022/09/12 03:36:27;;;;;;;;;;;;;;;17.47;62.14;99392.72;4480498;31;33503;-63
2022/09/12 03:38:55;;;;;;;;;;;;;;;17.80;61.28;99395.47;4477006;31;35374;-64
2022/09/12 03:41:22;;;;;;;;;;;;;;;17.27;62.65;99397.63;4481699;31;34749;-64
2022/09/12 03:43:50;;;;;;;;;;;;;;;17.22;62.77;99399.97;4480977;31;33233;-64
2022/09/12 03:46:17;;;;;;;;;;;;;;;17.91;60.61;99404.13;4477212;31;34213;-63
2022/09/12 03:48:45;;;;;;;;;;;;;;;18.03;60.21;99399.19;4477228;32;34328;-63
2022/09/12 03:51:12;;;;;;;;;;;;;;;18.13;59.61;99404.41;4477508;32;35493;-63
2022/09/12 03:53:39;;;;;;;;;;;;;;;18.16;59.51;99398.66;4475468;32;33384;-63
2022/09/12 03:56:07;;;;;;;;;;;;;;;18.40;58.88;99392.34;4476755;32;34960;-63
2022/09/12 03:58:35;;;;;;;;;;;;;;;18.11;59.67;99392.91;4478722;32;33651;-63
2022/09/12 04:01:11;;;;;;;;;;;;;;;18.28;58.82;99397.28;4477757;31;35090;-63
2022/09/12 04:03:39;;;;;;;;;;;;;;;18.56;58.00;99394.16;4473486;32;32349;-63
2022/09/12 04:06:07;;;;;;;;;;;;;;;18.73;57.64;99400.41;4476822;32;33822;-62
2022/09/12 04:08:35;;;;;;;;;;;;;;;18.75;57.53;99412.75;4475530;32;32942;-63
2022/09/12 04:11:12;;;;;;;;;;;;;;;18.53;57.44;99403.47;4477388;31;34600;-63
2022/09/12 04:13:40;;;;;;;;;;;;;;;18.62;57.29;99402.44;4471805;32;33996;-63
2022/09/12 04:16:08;;;;;;;;;;;;;;;18.33;58.20;99407.59;4481199;32;33918;-62
2022/09/12 04:18:35;;;;;;;;;;;;;;;18.65;57.59;99412.09;4482130;32;35110;-63
2022/09/12 04:21:13;;;;;;;;;;;;;;;18.54;57.64;99412.47;4471852;32;32986;-63
2022/09/12 04:23:41;;;;;;;;;;;;;;;18.67;57.23;99412.75;4481752;32;33582;-63
2022/09/12 04:26:08;;;;;;;;;;;;;;;18.93;56.39;99408.94;4477734;32;32740;-63
2022/09/12 04:28:36;;;;;;;;;;;;;;;18.22;58.14;99407.97;4481933;32;34236;-63
2022/09/12 04:31:05;;;;;;;;;;;;;;;18.21;58.31;99411.69;4479989;32;34986;-63
2022/09/12 04:33:33;;;;;;;;;;;;;;;18.56;57.83;99410.44;4472660;32;34631;-63
2022/09/12 04:36:04;;;;;;;;;;;;;;;18.50;57.60;99406.53;4477279;32;32818;-63
2022/09/12 04:38:32;;;;;;;;;;;;;;;18.50;57.69;99411.12;4479656;32;32767;-63
2022/09/12 04:41:00;;;;;;;;;;;;;;;18.16;58.61;99421.16;4480165;32;35438;-63
2022/09/12 04:43:27;;;;;;;;;;;;;;;18.58;56.98;99417.34;4480996;32;33524;-62
2022/09/12 04:45:54;;;;;;;;;;;;;;;18.91;56.16;99416.41;4476017;32;33963;-63
2022/09/12 04:48:22;;;;;;;;;;;;;;;18.98;56.15;99414.69;4481365;32;35179;-62
2022/09/12 04:50:49;;;;;;;;;;;;;;;18.58;57.50;99420.06;4481470;32;34401;-62
2022/09/12 04:53:16;;;;;;;;;;;;;;;18.96;56.30;99419.44;4478325;32;32267;-62
2022/09/12 04:55:44;;;;;;;;;;;;;;;18.94;55.91;99421.47;4470076;32;35255;-62
2022/09/12 04:58:11;;;;;;;;;;;;;;;18.70;57.69;99433.25;4481147;32;33908;-63
2022/09/12 05:00:38;;;;;;;;;;;;;;;19.15;56.01;99438.00;4478355;32;35473;-63
2022/09/12 05:03:06;;;;;;;;;;;;;;;19.27;56.26;99436.59;4478131;32;33464;-63
2022/09/12 05:05:33;;;;;;;;;;;;;;;19.65;54.73;99436.72;4480133;32;32734;-62
2022/09/12 05:08:00;;;;;;;;;;;;;;;19.92;53.70;99439.91;4477054;32;34752;-63
2022/09/12 05:10:28;;;;;;;;;;;;;;;19.68;54.82;99428.22;4480595;32;34006;-63
2022/09/12 05:12:55;;;;;;;;;;;;;;;19.68;54.52;99435.53;4480954;32;33549;-63
2022/09/12 05:15:24;;;;;;;;;;;;;;;19.63;55.19;99440.59;4482096;32;35193;-63
2022/09/12 05:17:51;;;;;;;;;;;;;;;19.74;54.50;99438.34;4482039;32;32852;-62
2022/09/12 05:20:18;;;;;;;;;;;;;;;20.19;53.25;99450.22;4477510;32;33014;-62
2022/09/12 05:22:46;;;;;;;;;;;;;;;20.65;52.26;99455.53;4473069;32;33705;-62
2022/09/12 05:25:13;;;;;;;;;;;;;;;21.05;50.54;99452.53;4480290;32;33492;-62
2022/09/12 05:27:40;;;;;;;;;;;;;;;21.17;50.08;99456.44;4481451;32;34392;-64
2022/09/12 05:30:08;;;;;;;;;;;;;;;20.90;51.08;99450.66;4478122;32;33238;-63
2022/09/12 05:32:35;;;;;;;;;;;;;;;20.67;52.34;99461.66;4480635;32;34277;-63
2022/09/12 05:35:03;;;;;;;;;;;;;;;20.65;52.48;99466.41;4481814;32;35331;-63
2022/09/12 05:37:30;;;;;;;;;;;;;;;20.60;52.23;99459.84;4484133;32;34596;-63
2022/09/12 05:39:58;;;;;;;;;;;;;;;20.29;53.31;99468.97;4483715;32;34087;-63
2022/09/12 05:42:26;;;;;;;;;;;;;;;20.51;52.55;99466.34;4482606;32;34162;-63
2022/09/12 05:44:54;;;;;;;;;;;;;;;20.44;52.51;99460.81;4469323;32;32716;-63
2022/09/12 05:47:21;;;;;;;;;;;;;;;19.76;55.45;99462.59;4482116;32;33206;-62
2022/09/12 05:49:50;;;;;;;;;;;;;;;19.87;54.67;99464.91;4478264;32;34461;-63
2022/09/12 05:52:18;;;;;;;;;;;;;;;19.55;55.72;99474.09;4481137;32;32289;-64
2022/09/12 05:54:46;;;;;;;;;;;;;;;19.40;56.99;99473.16;4484117;32;33786;-62
2022/09/12 05:57:13;;;;;;;;;;;;;;;20.13;54.52;99469.13;4481653;32;33943;-62
2022/09/12 05:59:42;;;;;;;;;;;;;;;19.75;55.13;99477.22;4481279;32;33118;-62
2022/09/12 06:02:09;;;;;;;;;;;;;;;20.13;54.24;99474.56;4472245;32;32948;-63
2022/09/12 06:04:38;;;;;;;;;;;;;;;20.22;53.98;99481.56;4482351;32;34301;-62
2022/09/12 06:07:05;;;;;;;;;;;;;;;20.39;53.10;99490.44;4480101;32;34279;-63
2022/09/12 06:09:33;;;;;;;;;;;;;;;19.60;56.70;99478.97;4482025;32;34658;-63
2022/09/12 06:12:00;;;;;;;;;;;;;;;19.98;54.94;99479.91;4476619;32;34454;-64
2022/09/12 06:14:28;;;;;;;;;;;;;;;19.09;57.51;99482.09;4476455;32;34368;-62
2022/09/12 06:16:55;;;;;;;;;;;;;;;19.63;55.79;99484.03;4481830;32;34344;-63
2022/09/12 06:19:23;;;;;;;;;;;;;;;20.06;54.89;99477.13;4481819;32;32771;-63
2022/09/12 06:21:52;;;;;;;;;;;;;;;20.16;53.97;99485.91;4482111;32;33614;-62
2022/09/12 06:24:19;;;;;;;;;;;;;;;19.93;54.61;99480.44;4482423;32;33932;-63
2022/09/12 06:26:47;;;;;;;;;;;;;;;19.59;55.48;99480.84;4482680;32;34115;-62
2022/09/12 06:29:14;;;;;;;;;;;;;;;19.46;56.57;99477.88;4481628;32;34537;-63
2022/09/12 06:31:42;;;;;;;;;;;;;;;19.20;57.42;99475.47;4478986;32;34565;-63
2022/09/12 06:34:10;;;;;;;;;;;;;;;19.12;57.66;99480.91;4477443;32;33880;-63
2022/09/12 06:36:39;;;;;;;;;;;;;;;18.30;59.82;99479.25;4477796;32;33879;-62
2022/09/12 06:39:07;;;;;;;;;;;;;;;18.52;58.81;99480.41;4479863;32;33038;-63
2022/09/12 06:41:35;;;;;;;;;;;;;;;18.43;59.47;99480.59;4473347;32;33336;-63
2022/09/12 06:44:08;;;;;;;;;;;;;;;18.13;60.31;99480.25;4478056;32;33874;-63
2022/09/12 06:46:36;;;;;;;;;;;;;;;18.68;58.41;99478.66;4471242;32;33779;-63
2022/09/12 06:49:03;;;;;;;;;;;;;;;18.92;58.26;99485.91;4475090;32;33050;-62
2022/09/12 06:51:30;;;;;;;;;;;;;;;19.52;56.86;99480.72;4473984;32;33274;-63
2022/09/12 06:53:58;;;;;;;;;;;;;;;19.36;57.37;99482.66;4481903;32;34137;-63
2022/09/12 06:56:26;;;;;;;;;;;;;;;19.40;57.19;99478.59;4464957;32;32781;-63
2022/09/12 06:58:56;;;;;;;;;;;;;;;19.36;56.83;99488.06;4476161;32;34579;-63
2022/09/12 07:01:25;;;;;;;;;;;;;;;19.41;57.69;99482.97;4476317;32;32960;-63
2022/09/12 07:03:54;;;;;;;;;;;;;;;19.61;57.00;99484.19;4482009;32;32771;-63
2022/09/12 07:06:23;;;;;;;;;;;;;;;20.04;56.31;99481.06;4481623;32;35457;-63
2022/09/12 07:08:51;;;;;;;;;;;;;;;20.12;55.85;99478.28;4480734;32;34372;-63
2022/09/12 07:11:19;;;;;;;;;;;;;;;20.11;55.38;99476.59;4480883;32;32084;-63
2022/09/12 07:13:48;;;;;;;;;;;;;;;19.66;56.70;99483.72;4479216;32;34956;-63
2022/09/12 07:16:16;;;;;;;;;;;;;;;19.88;56.04;99479.31;4483163;32;34116;-63
2022/09/12 07:18:52;;;;;;;;;;;;;;;19.23;57.05;99484.09;4480742;32;34306;-63
2022/09/12 07:21:20;;;;;;;;;;;;;;;19.52;56.70;99488.03;4480701;32;33360;-63
2022/09/12 07:23:48;;;;;;;;;;;;;;;18.82;58.29;99477.97;4482367;32;34023;-63
2022/09/12 07:26:15;;;;;;;;;;;;;;;18.85;58.70;99492.03;4478777;32;35770;-63
2022/09/12 07:28:42;;;;;;;;;;;;;;;19.23;57.64;99491.37;4477667;32;33081;-63
2022/09/12 07:31:11;;;;;;;;;;;;;;;19.20;57.02;99486.31;4479755;32;33344;-63
2022/09/12 07:33:38;;;;;;;;;;;;;;;19.12;56.74;99489.06;4478756;32;33954;-63
2022/09/12 07:36:07;;;;;;;;;;;;;;;18.97;57.15;99484.38;4483032;32;32950;-63
2022/09/12 07:38:35;;;;;;;;;;;;;;;19.42;56.06;99481.94;4471842;32;34085;-63
2022/09/12 07:41:12;;;;;;;;;;;;;;;19.54;55.45;99494.94;4472382;32;32344;-63
2022/09/12 07:43:40;;;;;;;;;;;;;;;19.21;56.67;99494.25;4482332;32;34126;-63
2022/09/12 07:46:08;;;;;;;;;;;;;;;19.29;55.62;99490.66;4484464;32;33962;-63
2022/09/12 07:48:36;;;;;;;;;;;;;;;19.84;54.96;99489.72;4480925;32;33335;-63
2022/09/12 07:51:04;;;;;;;;;;;;;;;20.68;52.83;99490.53;4481011;32;33876;-62
2022/09/12 07:53:33;;;;;;;;;;;;;;;20.11;54.46;99498.31;4482370;32;34021;-63
2022/09/12 07:56:01;;;;;;;;;;;;;;;19.64;55.35;99502.03;4483329;32;35412;-63
2022/09/12 07:58:29;;;;;;;;;;;;;;;19.83;54.33;99496.16;4480090;32;33710;-63
2022/09/12 08:01:02;;;;;;;;;;;;;;;19.89;53.51;99489.16;4477205;32;33487;-63
2022/09/12 08:03:30;;;;;;;;;;;;;;;20.16;53.64;99490.44;4479965;32;33916;-63
2022/09/12 08:06:07;;;;;;;;;;;;;;;20.54;52.42;99483.16;4483185;32;33130;-63
2022/09/12 08:08:35;;;;;;;;;;;;;;;19.58;54.29;99490.00;4471399;32;34053;-63
2022/09/12 08:11:04;;;;;;;;;;;;;;;19.59;53.65;99497.13;4476462;32;34561;-63
2022/09/12 08:13:32;;;;;;;;;;;;;;;20.13;53.19;99491.69;4481330;32;34171;-63
2022/09/12 08:16:01;;;;;;;;;;;;;;;19.94;52.84;99486.75;4479513;32;33913;-63
2022/09/12 08:18:29;;;;;;;;;;;;;;;19.98;53.38;99494.34;4479163;32;32843;-63
2022/09/12 08:20:57;;;;;;;;;;;;;;;20.13;52.94;99499.84;4472510;32;33364;-63
2022/09/12 08:23:24;;;;;;;;;;;;;;;20.44;52.30;99494.28;4481928;32;32942;-63
2022/09/12 08:25:54;;;;;;;;;;;;;;;20.19;52.76;99501.84;4480822;32;33078;-63
2022/09/12 08:28:21;;;;;;;;;;;;;;;20.33;53.21;99499.34;4481361;32;33809;-63
2022/09/12 08:30:49;;;;;;;;;;;;;;;20.67;52.46;99494.28;4475634;32;34660;-63
2022/09/12 08:33:16;;;;;;;;;;;;;;;21.00;51.10;99491.19;4479461;32;35021;-63
2022/09/12 08:35:43;;;;;;;;;;;;;;;20.79;52.64;99497.37;4478800;32;33960;-63
2022/09/12 08:38:11;;;;;;;;;;;;;;;21.04;51.16;99495.22;4479688;32;34032;-63
2022/09/12 08:40:43;;;;;;;;;;;;;;;21.50;50.14;99494.16;4474689;32;34594;-62
2022/09/12 08:43:20;;;;;;;;;;;;;;;20.73;51.90;99500.81;4477789;32;34109;-63
2022/09/12 08:45:53;;;;;;;;;;;;;;;21.31;50.45;99490.13;4468149;32;33910;-64
2022/09/12 08:48:20;;;;;;;;;;;;;;;21.12;49.63;99492.41;4471901;32;34322;-63
2022/09/12 08:50:48;;;;;;;;;;;;;;;21.35;48.17;99492.31;4484385;32;32955;-64
2022/09/12 08:53:18;;;;;;;;;;;;;;;21.85;46.81;99487.84;4483830;32;34239;-64
2022/09/12 08:55:50;;;;;;;;;;;;;;;21.63;46.86;99483.41;4468187;32;33044;-63
2022/09/12 08:58:18;;;;;;;;;;;;;;;22.07;46.99;99479.66;4482403;32;34587;-63
2022/09/12 09:01:06;;;;;;;;;;;;;;;22.74;46.05;99481.91;4473981;32;34338;-63
2022/09/12 09:03:52;;;;;;;;;;;;;;;22.71;45.48;99471.41;4476282;32;33525;-63
2022/09/12 09:06:26;;;;;;;;;;;;;;;21.86;46.19;99470.47;4475755;32;33524;-63
2022/09/12 09:08:57;;;;;;;;;;;;;;;22.35;44.71;99478.91;4485122;32;33383;-63
2022/09/12 09:11:30;;;;;;;;;;;;;;;21.77;46.08;99478.97;4481355;32;34557;-63
2022/09/12 09:16:47;;;;;;;;;;;;;;;21.88;45.86;99475.72;4479536;32;34261;-64
2022/09/12 09:19:20;;;;;;;;;;;;;;;21.70;46.73;99475.31;4471399;32;34482;-63
2022/09/12 09:21:52;;;;;;;;;;;;;;;21.58;45.68;99475.81;4477514;32;32808;-63
2022/09/12 09:24:21;;;;;;;;;;;;;;;21.47;45.34;99464.56;4478133;32;33963;-63
2022/09/12 09:26:50;;;;;;;;;;;;;;;21.37;46.78;99473.06;4470155;32;34056;-64
2022/09/12 09:29:18;;;;;;;;;;;;;;;21.68;46.00;99469.22;4475951;32;35056;-63
2022/09/12 09:31:51;;;;;;;;;;;;;;;21.96;44.75;99467.44;4475966;32;33163;-63
2022/09/12 09:34:20;;;;;;;;;;;;;;;21.83;45.41;99467.28;4483859;32;33150;-63
2022/09/12 09:36:51;;;;;;;;;;;;;;;21.94;45.42;99463.19;4483308;32;34326;-64
2022/09/12 09:39:25;;;;;;;;;;;;;;;22.07;45.42;99466.03;4459151;32;34220;-64
2022/09/12 09:41:58;;;;;;;;;;;;;;;22.06;45.97;99470.66;4478371;32;33456;-63
2022/09/12 09:44:27;;;;;;;;;;;;;;;22.29;45.18;99475.06;4483497;32;34284;-64
2022/09/12 09:46:54;;;;;;;;;;;;;;;22.87;44.25;99478.44;4479601;32;34316;-62
2022/09/12 09:49:22;;;;;;;;;;;;;;;22.71;45.06;99479.59;4458555;32;32982;-63
2022/09/12 09:51:50;;;;;;;;;;;;;;;22.55;44.59;99475.28;4471357;32;33019;-64
2022/09/12 09:54:22;;;;;;;;;;;;;;;22.49;45.29;99476.06;4476333;32;35289;-64
2022/09/12 09:56:49;;;;;;;;;;;;;;;22.15;44.31;99486.84;4473752;32;35211;-63
2022/09/12 09:59:27;;;;;;;;;;;;;;;21.93;45.18;99481.44;4477530;32;35108;-63
2022/09/12 10:01:55;;;;;;;;;;;;;;;21.93;46.06;99484.16;4479615;32;34280;-63
2022/09/12 10:04:28;;;;;;;;;;;;;;;21.76;47.27;99477.25;4462259;32;32663;-65
2022/09/12 10:06:59;;;;;;;;;;;;;;;21.78;47.17;99467.03;4459685;32;32515;-62
2022/09/12 10:09:33;;;;;;;;;;;;;;;22.47;45.99;99459.09;4472220;32;34713;-62
2022/09/12 10:12:18;;;;;;;;;;;;;;;22.59;45.01;99456.62;4482991;32;33734;-62
2022/09/12 10:14:56;;;;;;;;;;;;;;;23.39;44.60;99457.06;4481798;32;33766;-62
2022/09/12 10:17:23;;;;;;;;;;;;;;;23.24;43.27;99460.81;4481650;32;34101;-62
2022/09/12 10:19:52;;;;;;;;;;;;;;;22.58;43.11;99465.88;4484147;32;33198;-63
2022/09/12 10:22:39;;;;;;;;;;;;;;;22.25;44.43;99471.91;4470475;32;33533;-62
2022/09/12 10:25:09;;;;;;;;;;;;;;;22.25;44.34;99461.00;4475472;32;34558;-63
2022/09/12 10:27:36;;;;;;;;;;;;;;;22.05;44.95;99471.72;4479117;32;32847;-62
2022/09/12 10:30:26;;;;;;;;;;;;;;;22.23;44.85;99462.22;4475909;32;33546;-62
2022/09/12 10:33:06;;;;;;;;;;;;;;;22.41;44.98;99456.31;4476609;32;33327;-63
2022/09/12 10:35:41;;;;;;;;;;;;;;;22.88;43.57;99462.91;4477054;32;35077;-62
2022/09/12 10:38:27;;;;;;;;;;;;;;;22.29;44.72;99465.00;4478785;32;35167;-62
2022/09/12 10:40:58;;;;;;;;;;;;;;;22.61;44.75;99459.16;4477615;32;32952;-62
2022/09/12 10:43:27;;;;;;;;;;;;;;;22.36;45.37;99467.78;4479094;32;35029;-63
2022/09/12 10:45:59;;;;;;;;;;;;;;;22.78;45.07;99469.56;4474252;32;32816;-62
2022/09/12 10:48:29;;;;;;;;;;;;;;;23.08;44.06;99468.47;4472588;32;34269;-62
2022/09/12 10:50:59;;;;;;;;;;;;;;;22.53;45.52;99463.72;4477938;32;33352;-62
2022/09/12 10:53:27;;;;;;;;;;;;;;;22.45;45.40;99465.78;4483328;32;35676;-63
2022/09/12 10:56:10;;;;;;;;;;;;;;;22.37;45.77;99457.72;4479586;32;34302;-63
2022/09/12 10:58:38;;;;;;;;;;;;;;;22.29;46.37;99469.63;4464362;32;33730;-63
2022/09/12 11:01:23;;;;;;;;;;;;;;;22.70;45.75;99463.44;4478513;32;34265;-63
2022/09/12 11:04:00;;;;;;;;;;;;;;;22.23;46.03;99457.63;4474769;32;31773;-63
2022/09/12 11:06:37;;;;;;;;;;;;;;;22.35;46.13;99454.38;4481924;32;33983;-62
2022/09/12 11:09:16;;;;;;;;;;;;;;;22.05;46.80;99460.81;4473632;32;34848;-63
2022/09/12 11:12:04;;;;;;;;;;;;;;;21.82;48.21;99466.44;4469105;32;32789;-63
2022/09/12 11:14:48;;;;;;;;;;;;;;;22.48;47.29;99455.31;4467925;32;32079;-62
2022/09/12 11:17:34;;;;;;;;;;;;;;;22.48;46.13;99452.56;4454547;32;32778;-63
2022/09/12 11:20:05;;;;;;;;;;;;;;;22.14;46.76;99460.66;4475073;32;33948;-63
2022/09/12 11:22:41;;;;;;;;;;;;;;;22.22;46.63;99466.00;4475365;32;34310;-63
2022/09/12 11:25:27;;;;;;;;;;;;;;;22.66;45.97;99462.13;4465714;32;31846;-62
2022/09/12 11:28:10;;;;;;;;;;;;;;;21.76;47.56;99469.94;4479748;32;33731;-63
2022/09/12 11:31:01;;;;;;;;;;;;;;;21.81;46.37;99463.91;4478977;32;35227;-62
2022/09/12 11:33:29;;;;;;;;;;;;;;;22.02;45.89;99463.91;4453623;31;34592;-63
2022/09/12 11:35:56;;;;;;;;;;;;;;;22.18;46.10;99459.25;4468921;32;32061;-63
2022/09/12 11:38:27;;;;;;;;;;;;;;;22.29;45.51;99459.56;4473586;31;35289;-63
2022/09/12 11:41:08;;;;;;;;;;;;;;;22.42;45.14;99464.28;4481901;32;34257;-63
2022/09/12 11:43:38;;;;;;;;;;;;;;;21.93;46.31;99456.91;4467507;32;35254;-63
2022/09/12 11:46:10;;;;;;;;;;;;;;;21.88;47.04;99462.09;4475635;32;33520;-62
2022/09/12 11:48:47;;;;;;;;;;;;;;;21.56;48.28;99458.81;4478818;32;34062;-63
2022/09/12 11:51:17;;;;;;;;;;;;;;;21.76;48.01;99458.19;4481868;32;34858;-63
2022/09/12 11:53:44;;;;;;;;;;;;;;;22.01;47.89;99453.19;4463161;32;32747;-63
2022/09/12 11:56:16;;;;;;;;;;;;;;;21.79;48.17;99455.91;4470498;32;33432;-63
2022/09/12 11:58:45;;;;;;;;;;;;;;;21.13;49.44;99460.59;4475832;32;34025;-62
2022/09/12 12:01:14;;;;;;;;;;;;;;;21.51;49.18;99457.72;4456731;32;32672;-62
2022/09/12 12:03:43;;;;;;;;;;;;;;;22.05;47.69;99451.75;4458688;32;32662;-63
2022/09/12 12:06:12;;;;;;;;;;;;;;;21.92;47.85;99457.94;4477811;32;32069;-63
2022/09/12 12:08:40;;;;;;;;;;;;;;;22.20;46.36;99451.72;4468914;32;32736;-62
2022/09/12 12:11:08;;;;;;;;;;;;;;;21.68;47.31;99448.28;4458971;32;33746;-63
2022/09/12 12:13:45;;;;;;;;;;;;;;;22.22;46.06;99441.47;4457574;32;34125;-62
2022/09/12 12:16:18;;;;;;;;;;;;;;;21.98;46.72;99442.69;4466456;32;33487;-63
2022/09/12 12:18:46;;;;;;;;;;;;;;;22.50;46.13;99439.59;4476918;32;32719;-63
2022/09/12 12:21:21;;;;;;;;;;;;;;;22.68;45.90;99433.59;4469085;32;35068;-63
2022/09/12 12:24:06;;;;;;;;;;;;;;;22.26;46.20;99432.69;4470418;32;34612;-63
2022/09/12 12:26:40;;;;;;;;;;;;;;;22.17;45.65;99422.97;4473932;32;33501;-63
2022/09/12 12:29:16;;;;;;;;;;;;;;;21.87;46.67;99420.38;4475590;31;34054;-63
2022/09/12 12:32:02;;;;;;;;;;;;;;;22.12;45.29;99428.16;4471944;32;34109;-63
2022/09/12 12:34:29;;;;;;;;;;;;;;;22.44;44.82;99434.06;4480154;31;35252;-63
2022/09/12 12:36:58;;;;;;;;;;;;;;;21.72;45.85;99432.38;4469299;32;33392;-63
2022/09/12 12:39:31;;;;;;;;;;;;;;;22.37;43.85;99430.47;4462979;32;32695;-63
2022/09/12 12:41:59;;;;;;;;;;;;;;;22.29;44.10;99426.00;4468809;32;34444;-64
2022/09/12 12:44:46;;;;;;;;;;;;;;;22.32;44.07;99431.91;4473127;32;33112;-63
2022/09/12 12:47:32;;;;;;;;;;;;;;;22.50;44.42;99442.31;4476659;32;33492;-63
2022/09/12 12:49:59;;;;;;;;;;;;;;;;;;4471766;32;34214;-63
2022/09/12 12:52:41;;;;;;;;;;;;;;;22.19;45.22;99429.06;4478826;32;35634;-64
2022/09/12 12:55:13;;;;;;;;;;;;;;;22.28;44.19;99425.16;4465473;32;35156;-63
2022/09/12 12:57:50;;;;;;;;;;;;;;;22.47;44.01;99425.50;4469545;32;32002;-63
2022/09/12 13:00:26;;;;;;;;;;;;;;;22.12;45.25;99419.97;4479029;32;33031;-63
2022/09/12 13:03:00;;;;;;;;;;;;;;;22.62;44.50;99417.19;4481423;32;33991;-64
2022/09/12 13:05:28;;;;;;;;;;;;;;;22.70;43.47;99411.59;4477802;31;34304;-63
2022/09/12 13:08:01;;;;;;;;;;;;;;;22.73;43.29;99408.47;4473512;32;33688;-63
2022/09/12 13:10:29;;;;;;;;;;;;;;;23.21;43.04;99406.63;4457347;32;33008;-63